createdAt,value
2023-02-08T00:01:39.619Z,97236.28
2023-02-08T00:04:25.660Z,97265.47
2023-02-08T00:07:11.312Z,97263.16
2023-02-08T00:09:57.188Z,97260.75
2023-02-08T00:12:42.859Z,97237.56
2023-02-08T00:15:29.045Z,97253.22
2023-02-08T00:18:15.014Z,97267.09
2023-02-08T00:21:00.910Z,97262.78
2023-02-08T00:23:46.809Z,97267.09
2023-02-08T00:26:32.652Z,97275.16
2023-02-08T00:29:19.105Z,97274.28
2023-02-08T00:32:05.221Z,97270.16
2023-02-08T00:34:51.361Z,97277.59
2023-02-08T00:37:37.204Z,97283.56
2023-02-08T00:40:23.104Z,97286.34
2023-02-08T00:43:09.555Z,97281.88
2023-02-08T00:45:56.756Z,97283.94
2023-02-08T00:48:43.706Z,97288.25
2023-02-08T00:51:29.666Z,97295.00
2023-02-08T00:54:17.226Z,97294.88
2023-02-08T00:57:03.080Z,97303.59
2023-02-08T00:59:49.304Z,97292.94
2023-02-08T01:02:35.243Z,97292.88
2023-02-08T01:05:20.995Z,97305.97
2023-02-08T01:08:07.072Z,97305.41
2023-02-08T01:10:53.352Z,97310.25
2023-02-08T01:13:41.876Z,97291.88
2023-02-08T01:16:31.754Z,97270.97
2023-02-08T01:19:19.583Z,97283.72
2023-02-08T01:22:05.765Z,97283.28
2023-02-08T01:24:51.511Z,97279.88
2023-02-08T01:27:37.438Z,97294.88
2023-02-08T01:30:24.036Z,97270.94
2023-02-08T01:33:10.144Z,97291.34
2023-02-08T01:35:56.046Z,97284.34
2023-02-08T01:38:42.661Z,97282.00
2023-02-08T01:41:34.423Z,97292.03
2023-02-08T01:44:57.879Z,97297.06
2023-02-08T01:47:45.470Z,97304.00
2023-02-08T01:50:43.007Z,97293.63
2023-02-08T01:53:30.861Z,97300.56
2023-02-08T01:56:23.253Z,97310.72
2023-02-08T01:59:13.982Z,97319.47
2023-02-08T02:02:00.836Z,97300.31
2023-02-08T02:04:48.255Z,97318.47
2023-02-08T02:07:33.978Z,97317.47
2023-02-08T02:10:26.820Z,97311.50
2023-02-08T02:13:20.439Z,97310.66
2023-02-08T02:16:06.951Z,97303.16
2023-02-08T02:18:53.836Z,97308.41
2023-02-08T02:21:39.798Z,97319.44
2023-02-08T02:24:34.295Z,97319.59
2023-02-08T02:27:59.109Z,97314.72
2023-02-08T02:31:19.633Z,97316.09
2023-02-08T02:34:31.666Z,97301.44
2023-02-08T02:37:49.655Z,97315.28
2023-02-08T02:40:56.717Z,97327.91
2023-02-08T02:43:47.721Z,97318.50
2023-02-08T02:46:43.432Z,97321.16
2023-02-08T02:49:37.204Z,97322.75
2023-02-08T02:52:34.654Z,97313.25
2023-02-08T02:55:22.976Z,97324.66
2023-02-08T02:58:11.045Z,97308.00
2023-02-08T03:00:58.606Z,97332.41
2023-02-08T03:03:44.468Z,97326.16
2023-02-08T03:06:57.465Z,97316.28
2023-02-08T03:09:55.617Z,97325.56
2023-02-08T03:13:19.356Z,97336.88
2023-02-08T03:16:14.393Z,97333.38
2023-02-08T03:19:08.126Z,97336.16
2023-02-08T03:21:53.815Z,97329.75
2023-02-08T03:25:00.673Z,97317.63
2023-02-08T03:28:02.085Z,97323.88
2023-02-08T03:30:52.752Z,97330.53
2023-02-08T03:33:45.816Z,97313.47
2023-02-08T03:36:49.550Z,97326.41
2023-02-08T03:39:36.621Z,97320.19
2023-02-08T03:42:25.559Z,97327.84
2023-02-08T03:45:25.135Z,97318.19
2023-02-08T03:48:12.367Z,97316.56
2023-02-08T03:50:59.009Z,97313.03
2023-02-08T03:53:46.542Z,97307.69
2023-02-08T03:56:41.732Z,97311.03
2023-02-08T03:59:30.950Z,97313.78
2023-02-08T04:02:20.106Z,97320.25
2023-02-08T04:05:06.750Z,97306.13
2023-02-08T04:07:52.910Z,97316.50
2023-02-08T04:10:39.116Z,97310.25
2023-02-08T04:13:25.383Z,97301.72
2023-02-08T04:16:12.408Z,97309.31
2023-02-08T04:18:58.284Z,97315.56
2023-02-08T04:21:44.077Z,97311.38
2023-02-08T04:24:29.870Z,97287.97
2023-02-08T04:27:15.737Z,97308.97
2023-02-08T04:30:01.659Z,97309.53
2023-02-08T04:32:47.495Z,97313.06
2023-02-08T04:35:34.347Z,97321.88
2023-02-08T04:38:20.089Z,97325.28
2023-02-08T04:41:06.006Z,97330.41
2023-02-08T04:43:51.807Z,97325.28
2023-02-08T04:46:37.768Z,97332.25
2023-02-08T04:49:23.575Z,97327.84
2023-02-08T04:52:09.428Z,97331.19
2023-02-08T04:54:55.118Z,97341.25
2023-02-08T04:57:40.871Z,97344.53
2023-02-08T05:00:27.150Z,97338.47
2023-02-08T05:03:13.714Z,97334.25
2023-02-08T05:06:00.226Z,97331.66
2023-02-08T05:08:46.349Z,97336.06
2023-02-08T05:11:32.319Z,97318.97
2023-02-08T05:14:18.199Z,97333.53
2023-02-08T05:17:04.091Z,97345.66
2023-02-08T05:19:49.774Z,97327.56
2023-02-08T05:22:35.964Z,97348.91
2023-02-08T05:25:22.058Z,97342.25
2023-02-08T05:28:07.830Z,97317.28
2023-02-08T05:30:53.666Z,97351.63
2023-02-08T05:33:39.493Z,97349.06
2023-02-08T05:36:25.365Z,97342.16
2023-02-08T05:39:11.145Z,97344.53
2023-02-08T05:41:56.978Z,97348.69
2023-02-08T05:44:42.745Z,97365.25
2023-02-08T05:47:28.766Z,97354.25
2023-02-08T05:50:14.911Z,97356.53
2023-02-08T05:53:04.890Z,97350.47
2023-02-08T05:55:56.902Z,97342.34
2023-02-08T05:58:42.677Z,97344.03
2023-02-08T06:01:29.288Z,97348.00
2023-02-08T06:04:15.425Z,97364.44
2023-02-08T06:07:01.235Z,97350.84
2023-02-08T06:09:48.580Z,97356.78
2023-02-08T06:12:34.861Z,97361.19
2023-02-08T06:15:20.763Z,97369.78
2023-02-08T06:18:06.512Z,97371.28
2023-02-08T06:20:54.316Z,97371.34
2023-02-08T06:23:41.308Z,97381.50
2023-02-08T06:26:27.299Z,97363.81
2023-02-08T06:29:16.586Z,97376.25
2023-02-08T06:32:03.132Z,97373.69
2023-02-08T06:34:50.948Z,97335.53
2023-02-08T06:37:36.766Z,97387.44
2023-02-08T06:40:22.706Z,97388.31
2023-02-08T06:43:08.658Z,97386.31
2023-02-08T06:45:54.849Z,97398.25
2023-02-08T06:48:40.687Z,97399.09
2023-02-08T06:51:27.467Z,97386.09
2023-02-08T06:54:15.669Z,97403.50
2023-02-08T06:57:02.022Z,97399.00
2023-02-08T06:59:47.802Z,97394.56
2023-02-08T07:02:33.977Z,97385.94
2023-02-08T07:05:20.049Z,97392.47
2023-02-08T07:08:06.626Z,97398.13
2023-02-08T07:10:52.839Z,97411.28
2023-02-08T07:13:38.790Z,97410.13
2023-02-08T07:16:26.169Z,97404.19
2023-02-08T07:19:11.958Z,97405.78
2023-02-08T07:21:59.450Z,97401.88
2023-02-08T07:24:45.480Z,97398.94
2023-02-08T07:27:31.425Z,97398.78
2023-02-08T07:30:17.242Z,97400.78
2023-02-08T07:33:03.083Z,97402.34
2023-02-08T07:35:49.061Z,97422.47
2023-02-08T07:38:35.299Z,97401.34
2023-02-08T07:41:21.261Z,97409.78
2023-02-08T07:44:07.541Z,97411.97
2023-02-08T07:46:53.422Z,97406.00
2023-02-08T07:49:39.215Z,97427.75
2023-02-08T07:52:24.919Z,97414.53
2023-02-08T07:55:11.841Z,97413.66
2023-02-08T07:57:58.728Z,97404.84
2023-02-08T08:00:44.447Z,97407.16
2023-02-08T08:03:30.373Z,97420.47
2023-02-08T08:06:16.268Z,97402.22
2023-02-08T08:09:02.077Z,97419.31
2023-02-08T08:11:47.880Z,97417.84
2023-02-08T08:14:33.556Z,97424.59
2023-02-08T08:17:19.819Z,97432.16
2023-02-08T08:20:06.003Z,97413.22
2023-02-08T08:22:52.101Z,97425.72
2023-02-08T08:25:38.201Z,97417.53
2023-02-08T08:28:24.276Z,97429.16
2023-02-08T08:31:19.223Z,97430.09
2023-02-08T08:34:05.389Z,97426.53
2023-02-08T08:36:51.195Z,97422.19
2023-02-08T08:39:37.275Z,97408.25
2023-02-08T08:42:22.951Z,97407.53
2023-02-08T08:45:09.507Z,97429.78
2023-02-08T08:47:55.665Z,97419.84
2023-02-08T08:50:43.281Z,97421.72
2023-02-08T08:53:29.617Z,97429.38
2023-02-08T08:56:15.708Z,97426.81
2023-02-08T08:59:01.477Z,97424.81
2023-02-08T09:01:47.262Z,97431.31
2023-02-08T09:04:33.688Z,97440.59
2023-02-08T09:07:19.724Z,97424.13
2023-02-08T09:10:06.149Z,97438.34
2023-02-08T09:12:53.096Z,97436.41
2023-02-08T09:15:40.679Z,97425.66
2023-02-08T09:18:26.426Z,97397.63
2023-02-08T09:21:21.136Z,97428.66
2023-02-08T09:24:07.025Z,97457.28
2023-02-08T09:26:52.713Z,97448.78
2023-02-08T09:29:38.436Z,97455.72
2023-02-08T09:32:24.146Z,97447.94
2023-02-08T09:35:09.960Z,97459.19
2023-02-08T09:37:58.204Z,97458.09
2023-02-08T09:41:22.728Z,97449.34
2023-02-08T09:44:26.663Z,97452.94
2023-02-08T09:47:22.548Z,97445.63
2023-02-08T09:50:39.729Z,97454.63
2023-02-08T09:53:32.522Z,97456.78
2023-02-08T09:56:22.103Z,97458.16
2023-02-08T09:59:23.193Z,97458.81
2023-02-08T10:02:21.664Z,97456.84
2023-02-08T10:05:11.386Z,97443.66
2023-02-08T10:07:58.640Z,97451.84
2023-02-08T10:10:49.184Z,97452.44
2023-02-08T10:13:44.506Z,97459.66
2023-02-08T10:16:33.380Z,97458.28
2023-02-08T10:19:55.518Z,97446.16
2023-02-08T10:23:03.273Z,97446.91
2023-02-08T10:26:29.501Z,97455.06
2023-02-08T10:29:38.736Z,97449.47
2023-02-08T10:33:00.592Z,97456.09
2023-02-08T10:35:54.377Z,97455.94
2023-02-08T10:38:46.697Z,97463.25
2023-02-08T10:41:38.033Z,97464.09
2023-02-08T10:44:56.636Z,97469.09
2023-02-08T10:47:55.738Z,97458.38
2023-02-08T10:50:46.315Z,97442.47
2023-02-08T10:53:35.461Z,97453.34
2023-02-08T10:56:39.164Z,97449.97
2023-02-08T10:59:30.936Z,97459.31
2023-02-08T11:02:28.834Z,97437.63
2023-02-08T11:05:20.049Z,97431.84
2023-02-08T11:08:10.726Z,97457.78
2023-02-08T11:11:04.540Z,97453.19
2023-02-08T11:13:51.722Z,97454.97
2023-02-08T11:16:42.384Z,97448.66
2023-02-08T11:19:37.657Z,97438.84
2023-02-08T11:22:25.559Z,97437.44
2023-02-08T11:25:32.881Z,97448.09
2023-02-08T11:28:40.959Z,97425.19
2023-02-08T11:31:36.552Z,97434.41
2023-02-08T11:34:35.598Z,97439.78
2023-02-08T11:37:28.084Z,97429.88
2023-02-08T11:40:18.980Z,97428.44
2023-02-08T11:43:07.999Z,97426.03
2023-02-08T11:45:56.069Z,97430.19
2023-02-08T11:48:49.427Z,97413.97
2023-02-08T11:51:36.807Z,97415.28
2023-02-08T11:54:41.461Z,97407.88
2023-02-08T11:57:31.811Z,97411.41
2023-02-08T12:00:23.915Z,97410.94
2023-02-08T12:03:18.595Z,97396.41
2023-02-08T12:06:18.015Z,97406.72
2023-02-08T12:09:27.311Z,97399.97
2023-02-08T12:12:17.791Z,97415.50
2023-02-08T12:15:09.856Z,97410.00
2023-02-08T12:18:14.283Z,97409.81
2023-02-08T12:21:17.674Z,97406.31
2023-02-08T12:24:08.160Z,97403.69
2023-02-08T12:27:27.513Z,97413.31
2023-02-08T12:30:30.302Z,97406.78
2023-02-08T12:33:34.470Z,97424.06
2023-02-08T12:36:41.370Z,97412.56
2023-02-08T12:40:01.185Z,97405.19
2023-02-08T12:43:00.617Z,97410.66
2023-02-08T12:46:01.572Z,97406.88
2023-02-08T12:48:59.709Z,97394.34
2023-02-08T12:52:18.086Z,97394.97
2023-02-08T12:55:25.899Z,97408.00
2023-02-08T12:58:37.305Z,97397.53
2023-02-08T13:01:30.028Z,97410.00
2023-02-08T13:04:43.599Z,97409.06
2023-02-08T13:07:33.909Z,97418.31
2023-02-08T13:10:30.648Z,97418.47
2023-02-08T13:13:22.379Z,97421.81
2023-02-08T13:16:20.362Z,97403.84
2023-02-08T13:19:22.581Z,97410.09
2023-02-08T13:22:10.189Z,97411.22
2023-02-08T13:25:12.122Z,97418.97
2023-02-08T13:28:04.764Z,97400.75
2023-02-08T13:31:02.848Z,97418.41
2023-02-08T13:34:32.830Z,97408.19
2023-02-08T13:37:31.497Z,97425.22
2023-02-08T13:40:28.253Z,97417.75
2023-02-08T13:43:37.741Z,97421.41
2023-02-08T13:46:27.895Z,97412.19
2023-02-08T13:49:41.568Z,97423.59
2023-02-08T13:52:48.966Z,97424.28
2023-02-08T13:55:41.584Z,97413.69
2023-02-08T13:58:36.409Z,97395.75
2023-02-08T14:01:27.864Z,97418.97
2023-02-08T14:04:13.738Z,97414.09
2023-02-08T14:07:08.460Z,97413.78
2023-02-08T14:10:22.543Z,97417.44
2023-02-08T14:13:27.379Z,97414.56
2023-02-08T14:16:34.517Z,97403.72
2023-02-08T14:19:24.671Z,97410.88
2023-02-08T14:22:14.027Z,97409.38
2023-02-08T14:25:16.985Z,97406.84
2023-02-08T14:28:03.427Z,97407.00
2023-02-08T14:30:52.084Z,97402.88
2023-02-08T14:33:41.819Z,97411.19
2023-02-08T14:36:35.557Z,97419.13
2023-02-08T14:39:25.049Z,97418.56
2023-02-08T14:42:13.939Z,97424.66
2023-02-08T14:45:01.417Z,97423.88
2023-02-08T14:47:47.102Z,97408.78
2023-02-08T14:50:36.074Z,97418.31
2023-02-08T14:53:24.580Z,97425.41
2023-02-08T14:56:18.309Z,97410.09
2023-02-08T14:59:26.672Z,97422.84
2023-02-08T15:02:16.285Z,97417.28
2023-02-08T15:05:09.950Z,97413.41
2023-02-08T15:07:57.831Z,97410.94
2023-02-08T15:10:45.465Z,97417.28
2023-02-08T15:13:31.552Z,97415.28
2023-02-08T15:16:17.417Z,97407.16
2023-02-08T15:19:04.456Z,97413.13
2023-02-08T15:21:50.571Z,97419.25
2023-02-08T15:24:37.948Z,97417.06
2023-02-08T15:27:27.058Z,97408.78
2023-02-08T15:30:37.450Z,97428.97
2023-02-08T15:33:23.325Z,97423.09
2023-02-08T15:36:17.126Z,97430.94
2023-02-08T15:39:23.296Z,97411.47
2023-02-08T15:42:21.031Z,97431.66
2023-02-08T15:45:24.578Z,97419.09
2023-02-08T15:48:11.337Z,97417.50
2023-02-08T15:50:57.529Z,97403.72
2023-02-08T15:53:46.046Z,97415.78
2023-02-08T15:56:38.666Z,97426.84
2023-02-08T15:59:29.004Z,97444.28
2023-02-08T16:02:23.916Z,97444.47
2023-02-08T16:05:20.915Z,97441.28
2023-02-08T16:08:07.242Z,97440.75
2023-02-08T16:11:11.987Z,97433.63
2023-02-08T16:13:59.395Z,97436.06
2023-02-08T16:16:49.541Z,97441.53
2023-02-08T16:19:35.332Z,97441.44
2023-02-08T16:22:21.272Z,97449.47
2023-02-08T16:25:34.035Z,97445.63
2023-02-08T16:28:28.837Z,97446.41
2023-02-08T16:31:20.383Z,97449.78
2023-02-08T16:34:08.064Z,97451.69
2023-02-08T16:36:54.870Z,97394.44
2023-02-08T16:39:50.244Z,97451.00
2023-02-08T16:42:40.045Z,97449.31
2023-02-08T16:45:25.862Z,97441.50
2023-02-08T16:48:51.207Z,97449.84
2023-02-08T16:51:39.514Z,97446.94
2023-02-08T16:54:28.375Z,97444.13
2023-02-08T16:57:14.697Z,97444.47
2023-02-08T17:00:00.935Z,97438.59
2023-02-08T17:02:47.555Z,97461.25
2023-02-08T17:05:38.483Z,97433.50
2023-02-08T17:08:24.325Z,97451.53
2023-02-08T17:11:13.461Z,97473.34
2023-02-08T17:14:01.181Z,97452.00
2023-02-08T17:16:47.378Z,97453.94
2023-02-08T17:19:33.171Z,97458.97
2023-02-08T17:22:19.556Z,97466.69
2023-02-08T17:25:06.032Z,97459.97
2023-02-08T17:27:58.164Z,97456.84
2023-02-08T17:30:44.927Z,97470.13
2023-02-08T17:33:33.288Z,97469.25
2023-02-08T17:36:19.592Z,97461.91
2023-02-08T17:39:06.246Z,97475.84
2023-02-08T17:41:52.301Z,97469.19
2023-02-08T17:44:38.027Z,97477.28
2023-02-08T17:47:24.430Z,97468.00
2023-02-08T17:50:12.519Z,97459.94
2023-02-08T17:52:58.269Z,97466.72
2023-02-08T17:55:45.574Z,97478.31
2023-02-08T17:58:32.044Z,97475.91
2023-02-08T18:01:21.645Z,97484.69
2023-02-08T18:04:11.221Z,97476.00
2023-02-08T18:06:57.384Z,97477.38
2023-02-08T18:09:43.253Z,97486.22
2023-02-08T18:12:29.245Z,97488.31
2023-02-08T18:15:18.037Z,97496.06
2023-02-08T18:18:04.127Z,97488.91
2023-02-08T18:20:50.342Z,97478.69
2023-02-08T18:23:36.389Z,97477.91
2023-02-08T18:26:24.085Z,97464.31
2023-02-08T18:29:11.161Z,97478.94
2023-02-08T18:31:57.503Z,97486.00
2023-02-08T18:34:45.303Z,97488.88
2023-02-08T18:37:32.376Z,97483.28
2023-02-08T18:40:18.434Z,97494.53
2023-02-08T18:43:04.395Z,97490.25
2023-02-08T18:46:04.646Z,97495.25
2023-02-08T18:48:51.519Z,97491.78
2023-02-08T18:51:37.643Z,97501.59
2023-02-08T18:54:23.541Z,97494.63
2023-02-08T18:57:12.288Z,97508.75
2023-02-08T18:59:58.566Z,97497.41
2023-02-08T19:02:46.097Z,97515.84
2023-02-08T19:05:32.450Z,97511.47
2023-02-08T19:08:18.194Z,97504.72
2023-02-08T19:11:05.180Z,97505.41
2023-02-08T19:13:52.170Z,97506.34
2023-02-08T19:16:39.033Z,97503.09
2023-02-08T19:19:25.421Z,97505.66
2023-02-08T19:22:11.190Z,97508.38
2023-02-08T19:24:57.393Z,97502.31
2023-02-08T19:27:45.004Z,97507.53
2023-02-08T19:30:30.762Z,97507.66
2023-02-08T19:33:16.671Z,97519.06
2023-02-08T19:36:10.004Z,97507.91
2023-02-08T19:38:58.404Z,97518.53
2023-02-08T19:41:45.452Z,97500.59
2023-02-08T19:44:31.721Z,97517.91
2023-02-08T19:47:18.505Z,97528.44
2023-02-08T19:50:05.563Z,97522.38
2023-02-08T19:52:51.389Z,97529.66
2023-02-08T19:55:37.311Z,97528.09
2023-02-08T19:58:23.369Z,97535.09
2023-02-08T20:01:12.785Z,97530.72
2023-02-08T20:03:58.691Z,97523.16
2023-02-08T20:06:45.218Z,97526.72
2023-02-08T20:09:31.276Z,97526.09
2023-02-08T20:12:17.143Z,97533.06
2023-02-08T20:15:03.013Z,97525.38
2023-02-08T20:17:48.923Z,97519.34
2023-02-08T20:20:35.951Z,97530.09
2023-02-08T20:23:23.020Z,97524.75
2023-02-08T20:26:14.060Z,97526.06
2023-02-08T20:29:00.063Z,97524.66
2023-02-08T20:31:52.207Z,97533.31
2023-02-08T20:34:40.962Z,97531.94
2023-02-08T20:37:33.996Z,97516.72
2023-02-08T20:40:19.819Z,97521.97
2023-02-08T20:43:05.674Z,97508.50
2023-02-08T20:45:51.562Z,97514.59
2023-02-08T20:48:37.498Z,97521.78
2023-02-08T20:51:25.872Z,97495.19
2023-02-08T20:54:12.331Z,97510.97
2023-02-08T20:56:58.563Z,97508.50
2023-02-08T20:59:45.619Z,97517.38
2023-02-08T21:02:31.649Z,97504.38
2023-02-08T21:05:17.552Z,97504.66
2023-02-08T21:08:03.563Z,97511.19
2023-02-08T21:10:49.347Z,97513.25
2023-02-08T21:13:35.542Z,97501.81
2023-02-08T21:16:21.927Z,97499.59
2023-02-08T21:19:07.667Z,97503.94
2023-02-08T21:21:55.396Z,97501.38
2023-02-08T21:24:41.598Z,97502.38
2023-02-08T21:27:27.427Z,97505.22
2023-02-08T21:30:13.452Z,97501.78
2023-02-08T21:32:59.472Z,97515.78
2023-02-08T21:35:45.221Z,97486.66
2023-02-08T21:38:31.439Z,97510.59
2023-02-08T21:41:20.463Z,97494.53
2023-02-08T21:44:08.307Z,97481.69
2023-02-08T21:46:54.570Z,97496.38
2023-02-08T21:49:59.029Z,97504.19
2023-02-08T21:53:03.648Z,97500.19
2023-02-08T21:55:49.470Z,97482.28
2023-02-08T21:58:35.597Z,97505.59
2023-02-08T22:01:21.704Z,97500.75
2023-02-08T22:04:07.588Z,97509.59
2023-02-08T22:06:53.354Z,97504.63
2023-02-08T22:09:41.648Z,97513.84
2023-02-08T22:12:27.457Z,97507.75
2023-02-08T22:15:16.201Z,97512.03
2023-02-08T22:18:03.135Z,97519.25
2023-02-08T22:20:52.225Z,97505.53
2023-02-08T22:23:38.135Z,97513.41
2023-02-08T22:26:24.017Z,97522.19
2023-02-08T22:29:10.603Z,97513.53
2023-02-08T22:31:56.798Z,97506.84
2023-02-08T22:34:44.497Z,97514.72
2023-02-08T22:37:32.888Z,97521.72
2023-02-08T22:40:19.149Z,97514.91
2023-02-08T22:43:05.082Z,97515.09
2023-02-08T22:46:00.701Z,97484.25
2023-02-08T22:48:46.905Z,97486.78
2023-02-08T22:51:32.690Z,97501.38
2023-02-08T22:54:18.530Z,97496.50
2023-02-08T22:57:06.026Z,97493.34
2023-02-08T22:59:52.155Z,97500.19
2023-02-08T23:02:38.008Z,97496.81
2023-02-08T23:05:23.764Z,97490.88
2023-02-08T23:08:10.375Z,97502.03
2023-02-08T23:11:05.068Z,97471.47
2023-02-08T23:13:51.102Z,97500.81
2023-02-08T23:16:37.157Z,97500.72
2023-02-08T23:19:23.429Z,97499.16
2023-02-08T23:22:09.562Z,97488.25
2023-02-08T23:24:55.670Z,97507.28
2023-02-08T23:27:41.748Z,97483.13
2023-02-08T23:30:27.710Z,97495.94
2023-02-08T23:33:13.574Z,97498.56
2023-02-08T23:35:59.444Z,97484.84
2023-02-08T23:38:45.356Z,97492.47
2023-02-08T23:41:31.544Z,97479.66
2023-02-08T23:44:17.781Z,97481.31
2023-02-08T23:47:03.560Z,97477.88
2023-02-08T23:49:49.511Z,97462.69
2023-02-08T23:52:36.556Z,97481.34
2023-02-08T23:55:23.587Z,97481.59
2023-02-08T23:58:09.741Z,97480.69
